createdAt,value
2022-11-16T00:01:38.531Z,89.62
2022-11-16T00:04:07.112Z,89.98
2022-11-16T00:06:35.482Z,89.14
2022-11-16T00:09:14.860Z,89.76
2022-11-16T00:11:44.692Z,89.10
2022-11-16T00:14:12.980Z,89.40
2022-11-16T00:16:41.679Z,89.40
2022-11-16T00:19:11.841Z,90.00
2022-11-16T00:21:40.204Z,89.88
2022-11-16T00:24:08.658Z,89.77
2022-11-16T00:26:36.892Z,89.70
2022-11-16T00:29:06.991Z,90.03
2022-11-16T00:31:35.419Z,90.08
2022-11-16T00:34:03.721Z,90.12
2022-11-16T00:36:32.148Z,89.68
2022-11-16T00:39:00.540Z,90.12
2022-11-16T00:41:28.851Z,90.11
2022-11-16T00:43:57.851Z,90.03
2022-11-16T00:46:28.121Z,90.26
2022-11-16T00:48:56.401Z,90.24
2022-11-16T00:51:24.658Z,90.27
2022-11-16T00:53:53.203Z,90.18
2022-11-16T00:56:23.071Z,90.35
2022-11-16T00:58:51.463Z,90.02
2022-11-16T01:01:20.104Z,89.98
2022-11-16T01:03:49.863Z,90.04
2022-11-16T01:06:18.353Z,90.18
2022-11-16T01:08:46.748Z,89.98
2022-11-16T01:11:25.410Z,89.75
2022-11-16T01:13:54.063Z,90.00
2022-11-16T01:16:23.574Z,89.82
2022-11-16T01:18:54.632Z,90.07
2022-11-16T01:21:24.111Z,90.20
2022-11-16T01:23:52.463Z,90.18
2022-11-16T01:26:20.810Z,90.39
2022-11-16T01:28:49.304Z,89.95
2022-11-16T01:31:18.131Z,90.39
2022-11-16T01:33:48.247Z,89.92
2022-11-16T01:36:27.743Z,89.86
2022-11-16T01:38:58.676Z,90.01
2022-11-16T01:41:31.442Z,89.63
2022-11-16T01:44:03.217Z,89.85
2022-11-16T01:46:43.749Z,90.31
2022-11-16T01:49:15.842Z,89.57
2022-11-16T01:51:48.785Z,90.16
2022-11-16T01:54:17.561Z,89.79
2022-11-16T01:56:57.524Z,90.32
2022-11-16T01:59:33.239Z,90.19
2022-11-16T02:02:02.304Z,90.21
2022-11-16T02:04:31.902Z,90.06
2022-11-16T02:07:08.041Z,90.55
2022-11-16T02:09:57.890Z,89.87
2022-11-16T02:12:50.771Z,90.51
2022-11-16T02:15:26.639Z,90.10
2022-11-16T02:18:15.021Z,90.11
2022-11-16T02:21:02.643Z,90.64
2022-11-16T02:23:52.101Z,89.98
2022-11-16T02:26:34.781Z,90.30
2022-11-16T02:29:17.765Z,90.33
2022-11-16T02:31:51.896Z,90.32
2022-11-16T02:34:21.700Z,90.08
2022-11-16T02:36:53.132Z,90.35
2022-11-16T02:39:24.643Z,90.33
2022-11-16T02:41:54.559Z,90.13
2022-11-16T02:44:28.372Z,89.27
2022-11-16T02:46:59.830Z,90.01
2022-11-16T02:49:30.271Z,90.19
2022-11-16T02:52:00.630Z,90.37
2022-11-16T02:54:29.373Z,90.39
2022-11-16T02:57:18.878Z,90.07
2022-11-16T02:59:52.052Z,90.17
2022-11-16T03:02:25.414Z,89.89
2022-11-16T03:04:56.401Z,89.95
2022-11-16T03:07:27.634Z,89.50
2022-11-16T03:09:58.220Z,89.83
2022-11-16T03:12:28.789Z,89.70
2022-11-16T03:15:00.508Z,89.29
2022-11-16T03:17:30.610Z,89.65
2022-11-16T03:20:02.718Z,89.75
2022-11-16T03:22:37.141Z,90.10
2022-11-16T03:25:06.247Z,89.78
2022-11-16T03:27:38.525Z,89.99
2022-11-16T03:30:12.096Z,89.83
2022-11-16T03:32:47.160Z,90.47
2022-11-16T03:35:18.412Z,89.53
2022-11-16T03:37:48.829Z,90.13
2022-11-16T03:40:18.541Z,89.85
2022-11-16T03:42:49.719Z,89.83
2022-11-16T03:45:21.510Z,89.86
2022-11-16T03:47:52.229Z,90.25
2022-11-16T03:50:22.370Z,90.27
2022-11-16T03:52:50.661Z,90.38
2022-11-16T03:55:20.069Z,90.42
2022-11-16T03:57:48.598Z,90.36
2022-11-16T04:00:17.120Z,90.05
2022-11-16T04:02:47.418Z,90.02
2022-11-16T04:05:30.608Z,90.10
2022-11-16T04:08:10.990Z,89.85
2022-11-16T04:10:48.183Z,90.49
2022-11-16T04:13:28.094Z,90.38
2022-11-16T04:16:06.889Z,90.43
2022-11-16T04:18:46.629Z,90.59
2022-11-16T04:21:29.729Z,90.57
2022-11-16T04:24:08.110Z,89.61
2022-11-16T04:26:53.413Z,90.16
2022-11-16T04:29:22.234Z,90.27
2022-11-16T04:32:00.544Z,90.63
2022-11-16T04:34:40.624Z,90.44
2022-11-16T04:37:19.914Z,90.19
2022-11-16T04:39:50.203Z,89.82
2022-11-16T04:42:22.403Z,89.75
2022-11-16T04:45:02.265Z,90.32
2022-11-16T04:47:37.324Z,89.97
2022-11-16T04:50:07.908Z,90.67
2022-11-16T04:52:36.303Z,89.88
2022-11-16T04:55:07.172Z,90.52
2022-11-16T04:57:35.570Z,90.62
2022-11-16T05:00:05.828Z,90.31
2022-11-16T05:02:36.466Z,90.61
2022-11-16T05:05:04.993Z,90.64
2022-11-16T05:07:36.300Z,90.68
2022-11-16T05:10:14.135Z,90.36
2022-11-16T05:12:43.877Z,90.10
2022-11-16T05:15:12.544Z,90.62
2022-11-16T05:17:41.076Z,90.44
2022-11-16T05:20:25.307Z,90.52
2022-11-16T05:23:01.044Z,90.44
2022-11-16T05:25:36.699Z,90.61
2022-11-16T05:28:10.044Z,90.32
2022-11-16T05:30:42.305Z,90.48
2022-11-16T05:33:11.326Z,90.03
2022-11-16T05:35:42.803Z,90.70
2022-11-16T05:38:12.611Z,90.77
2022-11-16T05:40:45.789Z,90.72
2022-11-16T05:43:14.246Z,90.30
2022-11-16T05:45:51.799Z,90.71
2022-11-16T05:48:22.625Z,90.57
2022-11-16T05:50:51.116Z,90.65
2022-11-16T05:53:26.617Z,89.89
2022-11-16T05:55:55.325Z,90.59
2022-11-16T05:58:25.246Z,90.31
2022-11-16T06:00:53.933Z,90.59
2022-11-16T06:03:22.662Z,90.58
2022-11-16T06:05:56.003Z,90.80
2022-11-16T06:08:28.540Z,90.38
2022-11-16T06:11:02.583Z,90.63
2022-11-16T06:13:31.154Z,90.81
2022-11-16T06:16:02.447Z,90.63
2022-11-16T06:18:33.091Z,90.26
2022-11-16T06:21:02.987Z,91.11
2022-11-16T06:23:33.536Z,90.68
2022-11-16T06:26:02.222Z,90.57
2022-11-16T06:28:32.256Z,90.05
2022-11-16T06:31:01.243Z,91.07
2022-11-16T06:33:33.721Z,90.92
2022-11-16T06:36:08.453Z,91.04
2022-11-16T06:38:39.387Z,90.93
2022-11-16T06:41:08.926Z,90.71
2022-11-16T06:43:42.936Z,90.92
2022-11-16T06:46:11.877Z,91.11
2022-11-16T06:48:41.644Z,90.06
2022-11-16T06:51:14.004Z,90.86
2022-11-16T06:53:44.121Z,90.73
2022-11-16T06:56:15.217Z,90.91
2022-11-16T06:59:09.677Z,91.01
2022-11-16T07:01:38.281Z,90.96
2022-11-16T07:04:12.476Z,90.51
2022-11-16T07:06:45.515Z,90.52
2022-11-16T07:09:18.386Z,90.77
2022-11-16T07:11:46.883Z,91.00
2022-11-16T07:14:17.848Z,90.98
2022-11-16T07:16:46.384Z,90.61
2022-11-16T07:19:14.779Z,90.93
2022-11-16T07:21:45.014Z,91.44
2022-11-16T07:24:20.006Z,90.40
2022-11-16T07:26:48.435Z,90.68
2022-11-16T07:29:21.796Z,91.01
2022-11-16T07:32:10.207Z,90.77
2022-11-16T07:34:49.684Z,91.21
2022-11-16T07:37:19.025Z,91.00
2022-11-16T07:39:48.686Z,90.60
2022-11-16T07:42:17.503Z,90.98
2022-11-16T07:44:53.445Z,90.03
2022-11-16T07:47:21.817Z,90.90
2022-11-16T07:49:50.164Z,90.32
2022-11-16T07:52:22.553Z,90.65
2022-11-16T07:55:03.624Z,90.98
2022-11-16T07:57:32.464Z,90.69
2022-11-16T08:00:05.460Z,90.78
2022-11-16T08:02:44.535Z,90.91
2022-11-16T08:05:19.110Z,90.50
2022-11-16T08:07:50.068Z,90.58
2022-11-16T08:10:22.432Z,90.42
2022-11-16T08:12:51.710Z,90.91
2022-11-16T08:15:21.625Z,90.98
2022-11-16T08:17:50.045Z,90.70
2022-11-16T08:20:18.662Z,90.56
2022-11-16T08:22:49.946Z,91.16
2022-11-16T08:25:19.696Z,91.43
2022-11-16T08:27:50.175Z,90.77
2022-11-16T08:30:22.125Z,91.05
2022-11-16T08:32:50.336Z,91.20
2022-11-16T08:35:18.632Z,90.92
2022-11-16T08:37:47.626Z,91.28
2022-11-16T08:40:17.466Z,90.60
2022-11-16T08:42:45.829Z,90.50
2022-11-16T08:45:15.797Z,90.30
2022-11-16T08:47:44.114Z,90.29
2022-11-16T08:50:12.319Z,90.47
2022-11-16T08:52:41.136Z,90.58
2022-11-16T08:55:10.461Z,89.72
2022-11-16T08:57:40.095Z,89.71
2022-11-16T09:00:12.616Z,89.72
2022-11-16T09:02:42.270Z,89.87
2022-11-16T09:05:12.620Z,89.65
2022-11-16T09:07:43.749Z,89.05
2022-11-16T09:10:12.137Z,89.10
2022-11-16T09:12:40.788Z,88.92
2022-11-16T09:15:09.659Z,88.28
2022-11-16T09:17:37.879Z,88.26
2022-11-16T09:20:08.566Z,88.06
2022-11-16T09:22:36.907Z,87.08
2022-11-16T09:25:05.418Z,87.33
2022-11-16T09:27:33.740Z,86.99
2022-11-16T09:30:01.931Z,87.40
2022-11-16T09:32:30.348Z,86.48
2022-11-16T09:34:58.491Z,86.33
2022-11-16T09:37:28.138Z,86.09
2022-11-16T09:39:58.122Z,85.93
2022-11-16T09:42:35.224Z,86.41
2022-11-16T09:45:06.666Z,85.99
2022-11-16T09:47:41.600Z,85.81
2022-11-16T09:50:18.299Z,86.21
2022-11-16T09:52:50.845Z,85.97
2022-11-16T09:55:25.238Z,85.82
2022-11-16T09:57:55.450Z,85.67
2022-11-16T10:00:24.356Z,85.13
2022-11-16T10:02:59.842Z,85.23
2022-11-16T10:05:29.959Z,85.18
2022-11-16T10:08:04.905Z,85.28
2022-11-16T10:10:36.638Z,85.39
2022-11-16T10:13:10.118Z,85.35
2022-11-16T10:15:44.378Z,85.41
2022-11-16T10:18:26.360Z,85.20
2022-11-16T10:21:03.684Z,84.89
2022-11-16T10:23:40.671Z,85.35
2022-11-16T10:26:17.127Z,85.06
2022-11-16T10:28:54.776Z,84.98
2022-11-16T10:31:27.532Z,85.03
2022-11-16T10:33:58.330Z,84.47
2022-11-16T10:36:30.852Z,85.15
2022-11-16T10:39:02.988Z,84.97
2022-11-16T10:41:34.898Z,84.46
2022-11-16T10:44:04.211Z,84.86
2022-11-16T10:46:35.158Z,84.95
2022-11-16T10:49:08.120Z,84.82
2022-11-16T10:51:36.608Z,84.18
2022-11-16T10:54:13.012Z,84.21
2022-11-16T10:56:45.618Z,84.26
2022-11-16T10:59:14.828Z,84.56
2022-11-16T11:01:44.111Z,84.40
2022-11-16T11:04:14.328Z,84.61
2022-11-16T11:06:42.840Z,84.50
2022-11-16T11:09:17.711Z,84.27
2022-11-16T11:12:08.247Z,83.98
2022-11-16T11:14:37.344Z,84.45
2022-11-16T11:17:12.451Z,84.18
2022-11-16T11:19:40.811Z,84.34
2022-11-16T11:22:14.842Z,84.27
2022-11-16T11:24:49.721Z,84.24
2022-11-16T11:27:23.540Z,83.63
2022-11-16T11:29:54.181Z,83.91
2022-11-16T11:32:24.642Z,83.82
2022-11-16T11:34:54.788Z,83.10
2022-11-16T11:37:25.070Z,83.78
2022-11-16T11:40:08.411Z,83.64
2022-11-16T11:42:41.608Z,83.66
2022-11-16T11:45:13.977Z,83.51
2022-11-16T11:48:02.720Z,83.33
2022-11-16T11:50:40.731Z,83.16
2022-11-16T11:53:13.971Z,83.20
2022-11-16T11:55:43.732Z,83.23
2022-11-16T11:58:16.941Z,83.08
2022-11-16T12:00:47.905Z,82.93
2022-11-16T12:03:34.289Z,82.37
2022-11-16T12:06:13.713Z,82.61
2022-11-16T12:08:59.812Z,82.25
2022-11-16T12:11:34.617Z,82.44
2022-11-16T12:14:11.093Z,82.24
2022-11-16T12:16:45.009Z,82.21
2022-11-16T12:19:28.072Z,82.27
2022-11-16T12:22:04.101Z,82.24
2022-11-16T12:24:44.794Z,82.49
2022-11-16T12:27:20.018Z,82.31
2022-11-16T12:29:55.062Z,82.58
2022-11-16T12:32:34.723Z,82.19
2022-11-16T12:35:13.227Z,81.90
2022-11-16T12:37:46.749Z,82.07
2022-11-16T12:40:24.321Z,81.80
2022-11-16T12:42:57.546Z,81.81
2022-11-16T12:45:36.680Z,81.85
2022-11-16T12:48:13.538Z,82.01
2022-11-16T12:50:46.461Z,82.08
2022-11-16T12:53:23.710Z,82.17
2022-11-16T12:55:58.770Z,81.66
2022-11-16T12:58:36.260Z,81.66
2022-11-16T13:01:10.544Z,81.92
2022-11-16T13:03:43.026Z,81.49
2022-11-16T13:06:15.620Z,81.67
2022-11-16T13:08:52.179Z,81.66
2022-11-16T13:11:22.203Z,81.68
2022-11-16T13:13:54.427Z,81.98
2022-11-16T13:16:24.283Z,81.63
2022-11-16T13:18:53.654Z,81.88
2022-11-16T13:21:29.962Z,81.57
2022-11-16T13:24:04.142Z,81.40
2022-11-16T13:26:36.233Z,81.71
2022-11-16T13:29:12.956Z,81.61
2022-11-16T13:31:45.185Z,81.59
2022-11-16T13:34:16.226Z,81.57
2022-11-16T13:36:45.980Z,81.30
2022-11-16T13:39:21.467Z,81.38
2022-11-16T13:41:52.087Z,81.25
2022-11-16T13:44:27.375Z,81.29
2022-11-16T13:46:57.823Z,81.70
2022-11-16T13:49:34.236Z,81.30
2022-11-16T13:52:21.998Z,81.30
2022-11-16T13:54:53.497Z,81.23
2022-11-16T13:57:24.727Z,80.92
2022-11-16T13:59:57.576Z,80.88
2022-11-16T14:02:33.765Z,81.51
2022-11-16T14:05:03.244Z,81.30
2022-11-16T14:07:40.761Z,81.45
2022-11-16T14:10:09.197Z,80.93
2022-11-16T14:12:53.093Z,80.90
2022-11-16T14:15:23.603Z,81.62
2022-11-16T14:17:57.826Z,81.72
2022-11-16T14:20:37.307Z,81.60
2022-11-16T14:23:20.546Z,81.89
2022-11-16T14:25:51.599Z,82.42
2022-11-16T14:28:27.467Z,82.15
2022-11-16T14:31:09.941Z,82.71
2022-11-16T14:33:39.094Z,83.34
2022-11-16T14:36:08.978Z,83.37
2022-11-16T14:38:38.859Z,83.56
2022-11-16T14:41:07.699Z,83.42
2022-11-16T14:43:40.050Z,83.85
2022-11-16T14:46:15.476Z,83.69
2022-11-16T14:48:45.629Z,83.97
2022-11-16T14:51:16.386Z,84.01
2022-11-16T14:53:48.318Z,84.14
2022-11-16T14:56:18.035Z,84.29
2022-11-16T14:58:52.877Z,84.70
2022-11-16T15:01:25.069Z,84.72
2022-11-16T15:03:55.826Z,84.49
2022-11-16T15:06:26.155Z,85.10
2022-11-16T15:08:55.807Z,84.67
2022-11-16T15:11:27.304Z,85.17
2022-11-16T15:13:56.078Z,85.11
2022-11-16T15:16:25.806Z,84.88
2022-11-16T15:18:57.703Z,85.19
2022-11-16T15:21:26.228Z,85.48
2022-11-16T15:24:23.330Z,85.05
2022-11-16T15:26:43.016Z,85.55
2022-11-16T15:29:15.605Z,85.84
2022-11-16T15:31:45.638Z,85.45
2022-11-16T15:34:14.319Z,85.26
2022-11-16T15:36:42.829Z,85.62
2022-11-16T15:39:15.105Z,85.75
2022-11-16T15:41:44.331Z,85.73
2022-11-16T15:44:16.377Z,85.57
2022-11-16T15:46:48.441Z,86.33
2022-11-16T15:49:24.231Z,86.44
2022-11-16T15:51:52.479Z,86.33
2022-11-16T15:54:25.345Z,86.03
2022-11-16T15:56:55.481Z,85.97
2022-11-16T15:59:26.288Z,86.27
2022-11-16T16:01:56.349Z,86.23
2022-11-16T16:04:25.272Z,86.33
2022-11-16T16:06:55.046Z,86.61
2022-11-16T16:09:25.443Z,86.05
2022-11-16T16:11:54.837Z,86.41
2022-11-16T16:14:27.182Z,86.50
2022-11-16T16:16:58.200Z,86.29
2022-11-16T16:19:34.028Z,86.60
2022-11-16T16:22:02.959Z,86.70
2022-11-16T16:24:38.759Z,86.82
2022-11-16T16:27:11.478Z,86.94
2022-11-16T16:29:39.869Z,87.16
2022-11-16T16:32:13.548Z,87.38
2022-11-16T16:34:42.869Z,87.03
2022-11-16T16:37:14.221Z,87.34
2022-11-16T16:39:42.631Z,87.50
2022-11-16T16:42:12.151Z,87.57
2022-11-16T16:44:40.550Z,87.55
2022-11-16T16:47:10.548Z,87.99
2022-11-16T16:49:39.089Z,87.56
2022-11-16T16:52:07.860Z,87.66
2022-11-16T16:54:36.230Z,88.30
2022-11-16T16:57:04.607Z,88.39
2022-11-16T16:59:32.951Z,88.62
2022-11-16T17:02:01.157Z,87.93
2022-11-16T17:04:30.954Z,87.88
2022-11-16T17:06:59.147Z,88.29
2022-11-16T17:09:27.537Z,88.29
2022-11-16T17:11:55.751Z,88.28
2022-11-16T17:14:24.983Z,88.38
2022-11-16T17:16:53.326Z,88.37
2022-11-16T17:19:22.118Z,88.01
2022-11-16T17:21:51.966Z,87.96
2022-11-16T17:24:20.234Z,88.46
2022-11-16T17:26:49.255Z,88.37
2022-11-16T17:29:17.640Z,88.41
2022-11-16T17:31:48.001Z,88.81
2022-11-16T17:34:16.536Z,88.57
2022-11-16T17:36:45.003Z,88.16
2022-11-16T17:39:16.157Z,88.32
2022-11-16T17:41:44.598Z,88.38
2022-11-16T17:44:17.207Z,88.24
2022-11-16T17:46:48.650Z,88.54
2022-11-16T17:49:16.889Z,89.11
2022-11-16T17:51:45.564Z,88.81
2022-11-16T17:54:15.272Z,88.87
2022-11-16T17:56:43.731Z,88.46
2022-11-16T17:59:12.132Z,88.59
2022-11-16T18:01:40.927Z,89.16
2022-11-16T18:04:09.426Z,89.27
2022-11-16T18:06:37.802Z,88.85
2022-11-16T18:09:06.080Z,89.31
2022-11-16T18:11:36.069Z,89.02
2022-11-16T18:14:05.952Z,88.76
2022-11-16T18:16:34.771Z,89.50
2022-11-16T18:19:03.521Z,89.59
2022-11-16T18:21:31.878Z,88.74
2022-11-16T18:24:00.548Z,89.61
2022-11-16T18:26:28.733Z,89.72
2022-11-16T18:28:58.414Z,89.38
2022-11-16T18:31:26.740Z,89.58
2022-11-16T18:33:54.930Z,89.68
2022-11-16T18:36:23.382Z,89.46
2022-11-16T18:38:51.679Z,89.96
2022-11-16T18:41:21.187Z,89.86
2022-11-16T18:43:50.458Z,89.79
2022-11-16T18:46:20.183Z,89.12
2022-11-16T18:48:48.461Z,90.14
2022-11-16T18:51:17.938Z,89.89
2022-11-16T18:53:46.156Z,89.49
2022-11-16T18:56:14.421Z,89.49
2022-11-16T18:58:52.344Z,89.73
2022-11-16T19:01:24.042Z,89.23
2022-11-16T19:03:53.168Z,90.04
2022-11-16T19:06:21.449Z,89.82
2022-11-16T19:08:56.304Z,89.72
2022-11-16T19:11:25.654Z,89.77
2022-11-16T19:13:54.994Z,89.42
2022-11-16T19:16:24.932Z,89.71
2022-11-16T19:18:53.187Z,89.40
2022-11-16T19:21:22.078Z,90.31
2022-11-16T19:23:50.991Z,89.96
2022-11-16T19:26:23.632Z,90.57
2022-11-16T19:28:52.552Z,89.76
2022-11-16T19:31:22.261Z,90.14
2022-11-16T19:33:56.286Z,89.99
2022-11-16T19:36:25.011Z,89.81
2022-11-16T19:38:53.205Z,90.31
2022-11-16T19:41:22.748Z,90.39
2022-11-16T19:43:52.869Z,89.65
2022-11-16T19:46:21.717Z,89.89
2022-11-16T19:48:50.742Z,89.83
2022-11-16T19:51:21.696Z,90.37
2022-11-16T19:53:50.112Z,90.16
2022-11-16T19:56:19.181Z,90.18
2022-11-16T19:58:47.379Z,89.85
2022-11-16T20:01:17.170Z,90.47
2022-11-16T20:03:46.097Z,89.91
2022-11-16T20:06:15.360Z,90.11
2022-11-16T20:08:49.781Z,89.98
2022-11-16T20:11:20.777Z,90.67
2022-11-16T20:13:49.264Z,90.37
2022-11-16T20:16:18.194Z,90.22
2022-11-16T20:18:46.711Z,90.31
2022-11-16T20:21:18.041Z,90.22
2022-11-16T20:23:47.737Z,90.50
2022-11-16T20:26:16.158Z,90.39
2022-11-16T20:28:45.426Z,90.73
2022-11-16T20:31:14.440Z,91.03
2022-11-16T20:33:42.946Z,91.07
2022-11-16T20:36:12.627Z,90.75
2022-11-16T20:38:41.327Z,90.92
2022-11-16T20:41:12.308Z,91.13
2022-11-16T20:43:41.568Z,90.89
2022-11-16T20:46:10.798Z,91.22
2022-11-16T20:48:39.849Z,91.15
2022-11-16T20:51:08.963Z,90.67
2022-11-16T20:53:38.263Z,91.19
2022-11-16T20:56:07.760Z,90.79
2022-11-16T20:58:37.907Z,91.06
2022-11-16T21:01:07.760Z,91.57
2022-11-16T21:03:36.325Z,91.12
2022-11-16T21:06:05.319Z,90.99
2022-11-16T21:08:33.646Z,90.99
2022-11-16T21:11:02.334Z,91.03
2022-11-16T21:13:40.650Z,91.94
2022-11-16T21:16:12.180Z,92.09
2022-11-16T21:18:40.906Z,91.85
2022-11-16T21:21:10.146Z,92.08
2022-11-16T21:23:39.122Z,91.94
2022-11-16T21:26:08.007Z,91.54
2022-11-16T21:28:36.659Z,92.01
2022-11-16T21:31:06.502Z,91.61
2022-11-16T21:33:36.445Z,91.93
2022-11-16T21:36:05.909Z,91.82
2022-11-16T21:38:35.027Z,92.23
2022-11-16T21:41:04.539Z,91.68
2022-11-16T21:43:34.397Z,92.31
2022-11-16T21:46:03.606Z,92.12
2022-11-16T21:48:33.525Z,91.75
2022-11-16T21:51:04.771Z,92.45
2022-11-16T21:53:33.713Z,92.16
2022-11-16T21:56:02.849Z,92.21
2022-11-16T21:58:31.132Z,92.58
2022-11-16T22:01:00.356Z,91.70
2022-11-16T22:03:29.537Z,92.81
2022-11-16T22:06:12.779Z,92.51
2022-11-16T22:08:43.149Z,92.36
2022-11-16T22:11:11.837Z,92.37
2022-11-16T22:13:40.486Z,92.10
2022-11-16T22:16:09.858Z,91.94
2022-11-16T22:18:38.299Z,92.33
2022-11-16T22:21:06.799Z,92.80
2022-11-16T22:23:35.652Z,92.76
2022-11-16T22:26:07.058Z,92.69
2022-11-16T22:28:35.829Z,92.94
2022-11-16T22:31:05.139Z,93.15
2022-11-16T22:33:34.352Z,92.75
2022-11-16T22:36:03.946Z,93.03
2022-11-16T22:38:32.461Z,92.88
2022-11-16T22:41:00.687Z,92.81
2022-11-16T22:43:31.410Z,93.19
2022-11-16T22:46:00.757Z,92.26
2022-11-16T22:48:32.716Z,92.80
2022-11-16T22:51:04.940Z,92.56
2022-11-16T22:53:33.569Z,93.61
2022-11-16T22:56:09.038Z,93.47
2022-11-16T22:58:39.498Z,93.04
2022-11-16T23:01:08.990Z,93.66
2022-11-16T23:03:37.863Z,93.64
2022-11-16T23:06:07.692Z,93.50
2022-11-16T23:08:37.090Z,92.66
2022-11-16T23:11:16.649Z,93.97
2022-11-16T23:13:56.473Z,93.40
2022-11-16T23:16:24.807Z,93.63
2022-11-16T23:18:53.031Z,93.73
2022-11-16T23:21:31.209Z,93.76
2022-11-16T23:24:09.267Z,93.44
2022-11-16T23:26:47.481Z,93.46
2022-11-16T23:29:17.100Z,93.88
2022-11-16T23:31:45.513Z,93.71
2022-11-16T23:34:13.832Z,92.81
2022-11-16T23:36:43.560Z,93.34
2022-11-16T23:39:11.855Z,93.21
2022-11-16T23:41:49.552Z,93.39
2022-11-16T23:44:19.232Z,93.78
2022-11-16T23:46:47.527Z,93.64
2022-11-16T23:49:15.979Z,93.80
2022-11-16T23:51:44.240Z,93.53
2022-11-16T23:54:12.500Z,93.43
2022-11-16T23:56:40.919Z,93.72
2022-11-16T23:59:09.146Z,93.95
